LNG Aquarius — V7BW6 — position and weather

sailwx.info

Track history (hours):
 
Tides and Currents Weather Stations Pressure Air Temp Water Temp Dewpoint Dewpoint Depression Visibility Wind Speed Wind Dir Waves Ship Positions

LNG Aquarius

Last reported at 2015-May-22 15:31 UTC. Time now 2015-May-25 11:31 UTC.
Position N 33°58' E 129°25'.

Type: Tanker. MMSI: 538001385.

Date/timePositionNaut miles runAvg speedWind from/ knotsBaromVisibWave heightAir tempDewpointWater temp
2015-May-22 15:31N 33°58' E 129°25'1413.6
2015-May-22 14:32N 33°52' E 129°10'1413.5
2015-May-22 13:29N 33°44' E 128°56'1313.4
2015-May-22 12:33N 33°37' E 128°43'18313.0
2015-May-21 22:25N 32°06' E 125°34'2412.7
2015-May-21 20:33N 31°55' E 125°10'4013.1
2015-May-21 17:29N 31°38' E 124°26'2611.7
2015-May-21 15:13N 31°28' E 123°58'910.4
2015-May-21 14:20N 31°24' E 123°48'12 9.7
2015-May-21 13:08N 31°20' E 123°35'610.6
2015-May-21 12:33N 31°17' E 123°29'5911.8
2015-May-21 07:33N 31°01' E 122°23'1413.4
2015-May-21 06:32N 31°03' E 122°07'1111.0
2015-May-21 05:33N 31°07' E 121°55'8 8.0
2015-May-21 04:32N 31°13' E 121°48'0 0.0
2015-May-21 03:32N 31°13' E 121°48'3 3.1
2015-May-21 02:33N 31°11' E 121°50'6 5.5
2015-May-21 01:33N 31°15' E 121°46'3 2.7
2015-May-21 00:32N 31°17' E 121°45'0 0.1
2015-May-20 23:32N 31°17' E 121°45'0 0.0
2015-May-20 22:32N 31°17' E 121°45'0 0.0
2015-May-20 21:29N 31°17' E 121°45'0 0.0
2015-May-20 20:32N 31°17' E 121°45'0 0.2
2015-May-20 19:32N 31°18' E 121°45'0 0.0
2015-May-20 18:32N 31°18' E 121°45'0 0.0
2015-May-20 17:32N 31°18' E 121°45'0 0.0
2015-May-20 16:32N 31°18' E 121°45'0 0.0
2015-May-20 15:32N 31°18' E 121°45'0 0.2
2015-May-20 14:29N 31°17' E 121°45'0 0.1
2015-May-20 13:32N 31°17' E 121°45'0 0.0
2015-May-20 12:32N 31°17' E 121°45'0 0.0
2015-May-20 11:29N 31°17' E 121°45'0 0.0
2015-May-20 10:32N 31°17' E 121°45'0 0.0
2015-May-20 09:29N 31°17' E 121°45'0 0.1
2015-May-20 08:32N 31°17' E 121°45'0 0.0
2015-May-20 07:32N 31°17' E 121°45'0 0.3
2015-May-20 06:32N 31°18' E 121°44'0 0.0
2015-May-20 05:32N 31°18' E 121°44'0 0.0
2015-May-20 04:32N 31°18' E 121°44'0 0.1
2015-May-20 03:32N 31°18' E 121°44'0 0.2
2015-May-20 02:29N 31°17' E 121°45'0 0.1
2015-May-20 01:32N 31°17' E 121°45'0 0.0
2015-May-20 00:32N 31°17' E 121°45'0 0.0
2015-May-19 23:32N 31°17' E 121°45'0 0.0
2015-May-19 22:32N 31°17' E 121°45'0 0.0
2015-May-19 21:29N 31°17' E 121°45'0 0.1
2015-May-19 20:32N 31°17' E 121°45'0 0.2
2015-May-19 19:32N 31°18' E 121°45'0 0.1
2015-May-19 18:32N 31°18' E 121°44'0 0.1
2015-May-19 17:33N 31°18' E 121°44'0 0.0
2015-May-19 16:30N 31°18' E 121°44'0 0.1
2015-May-19 15:33N 31°18' E 121°44'0 0.1
2015-May-19 14:33N 31°18' E 121°44'0 0.2
2015-May-19 13:33N 31°17' E 121°45'0 0.1
2015-May-19 12:33N 31°17' E 121°45'0 0.0
2015-May-19 11:30N 31°17' E 121°45'0 0.0
2015-May-19 10:33N 31°17' E 121°45'0 0.0
2015-May-19 09:33N 31°17' E 121°45'0 0.0
2015-May-19 08:33N 31°17' E 121°45'0 0.1
2015-May-19 07:30N 31°17' E 121°45'0 0.2
2015-May-19 06:30N 31°18' E 121°44'0 0.1
2015-May-19 05:33N 31°18' E 121°44'0 0.0
2015-May-19 04:33N 31°18' E 121°44'0 0.0
2015-May-19 03:30N 31°18' E 121°44'0 0.1
2015-May-19 02:33N 31°18' E 121°44'0 0.2
2015-May-19 01:33N 31°17' E 121°45'0 0.1
2015-May-19 00:33N 31°17' E 121°45'0 0.0
2015-May-18 23:33N 31°17' E 121°45'0 0.0
2015-May-18 22:33N 31°17' E 121°45'0 0.1
2015-May-18 21:33N 31°17' E 121°45'0 0.0
2015-May-18 20:33N 31°17' E 121°45'0 0.0
2015-May-18 19:33N 31°17' E 121°45'0 0.2
2015-May-18 18:33N 31°18' E 121°45'0 0.1
2015-May-18 17:33N 31°18' E 121°44'0 0.0
2015-May-18 16:33N 31°18' E 121°44'0 0.0
2015-May-18 15:33N 31°18' E 121°44'0 0.0
2015-May-18 14:32N 31°18' E 121°44'0 0.1
2015-May-18 13:30N 31°18' E 121°44'0 0.2
2015-May-18 12:32N 31°17' E 121°45'0 0.1
2015-May-18 11:32N 31°17' E 121°45'0 0.0
2015-May-18 10:33N 31°17' E 121°45'0 0.0
2015-May-18 09:32N 31°17' E 121°45'0 0.0
2015-May-18 08:29N 31°17' E 121°45'0 0.1
2015-May-18 07:33N 31°17' E 121°45'0 0.1
2015-May-18 06:32N 31°17' E 121°45'0 0.2
2015-May-18 05:32N 31°18' E 121°45'0 0.1
2015-May-18 04:32N 31°18' E 121°44'0 0.0
2015-May-18 03:32N 31°18' E 121°44'0 0.1
2015-May-18 02:33N 31°18' E 121°45'4 4.2
2015-May-18 01:33N 31°20' E 121°41'6 6.1
2015-May-18 00:33N 31°23' E 121°34'8 8.1
2015-May-17 23:33N 31°28' E 121°27'1111.4
2015-May-17 22:33N 31°36' E 121°17'3 3.1
2015-May-17 21:30N 31°39' E 121°15'0 0.0
2015-May-17 20:33N 31°39' E 121°15'0 0.1
2015-May-17 19:33N 31°39' E 121°15'0 0.2
2015-May-17 18:33N 31°39' E 121°15'0 0.0
2015-May-17 17:33N 31°39' E 121°15'0 0.0
2015-May-17 16:30N 31°39' E 121°15'0 0.0
2015-May-17 15:30N 31°39' E 121°15'0 0.1
2015-May-17 14:34N 31°39' E 121°15'7 7.2
2015-May-17 13:34N 31°43' E 121°08'1211.5
2015-May-17 12:31N 31°48' E 120°55'1313.3
2015-May-17 11:33N 31°60' E 120°49'1312.8
2015-May-17 10:33N 32°02' E 120°34'9 9.4
2015-May-17 09:33N 32°01' E 120°23'0 0.1
2015-May-17 08:16N 32°01' E 120°23'0 0.1
2015-May-17 07:28N 32°01' E 120°23'0 0.1
2015-May-17 06:28N 32°01' E 120°23'0 0.1
2015-May-17 05:22N 32°01' E 120°23'0 0.1
2015-May-17 04:34N 32°01' E 120°23'0 0.0
2015-May-17 03:28N 32°01' E 120°23'0 0.1
2015-May-17 02:28N 32°01' E 120°23'0 0.0
2015-May-17 01:28N 32°01' E 120°23'0 0.0
2015-May-17 00:28N 32°01' E 120°23'0 0.0
2015-May-16 23:25N 32°01' E 120°23'0 0.0
2015-May-16 22:33N 32°01' E 120°23'0 0.0
2015-May-16 21:28N 32°01' E 120°23'0 0.1
2015-May-16 20:30N 32°01' E 120°23'0 0.1
2015-May-16 19:22N 32°01' E 120°23'0 0.0
2015-May-16 18:28N 32°01' E 120°23'0 0.0
2015-May-16 17:28N 32°01' E 120°23'0 0.2
2015-May-16 16:33N 32°01' E 120°23'0 0.1
2015-May-16 15:33N 32°01' E 120°23'0 0.0
2015-May-16 14:33N 32°01' E 120°23'0 0.0
2015-May-16 13:33N 32°01' E 120°23'0 0.0
2015-May-16 12:33N 32°01' E 120°23'0 0.0
2015-May-16 11:33N 32°01' E 120°23'0 0.0
2015-May-16 10:33N 32°01' E 120°23'0 0.0
2015-May-16 09:33N 32°01' E 120°23'0 0.0
2015-May-16 08:33N 32°01' E 120°23'0 0.2
2015-May-16 07:33N 32°01' E 120°23'0 0.1
2015-May-16 06:32N 32°01' E 120°23'0 0.0
2015-May-16 05:33N 32°01' E 120°23'0 0.1
2015-May-16 04:33N 32°01' E 120°23'0 0.1
2015-May-16 03:33N 32°01' E 120°23'0 0.0
2015-May-16 02:33N 32°01' E 120°23'0 0.0
2015-May-16 01:33N 32°01' E 120°23'0 0.0
2015-May-16 00:33N 32°01' E 120°23'0 0.0
2015-May-15 23:33N 32°01' E 120°23'0 0.0
2015-May-15 22:33N 32°01' E 120°23'0 0.0
2015-May-15 21:33N 32°01' E 120°23'0 0.0
2015-May-15 20:33N 32°01' E 120°23'0 0.1
2015-May-15 19:33N 32°01' E 120°23'0 0.1
2015-May-15 18:33N 32°01' E 120°23'0 0.0
2015-May-15 17:33N 32°01' E 120°23'0 0.0
2015-May-15 16:33N 32°01' E 120°23'0 0.2
2015-May-15 15:33N 32°01' E 120°23'0 0.0
2015-May-15 14:33N 32°01' E 120°23'0 0.0
2015-May-15 13:33N 32°01' E 120°23'0 0.0
2015-May-15 12:33N 32°01' E 120°23'0 0.1
2015-May-15 11:34N 32°01' E 120°23'2 2.1
2015-May-15 10:33N 32°03' E 120°25'0 0.1
2015-May-15 09:33N 32°03' E 120°25'0 0.2
2015-May-15 08:33N 32°03' E 120°25'0 0.3
2015-May-15 07:32N 32°02' E 120°24'0 0.0
2015-May-15 06:32N 32°02' E 120°24'0 0.0
2015-May-15 05:32N 32°02' E 120°24'0 0.0
2015-May-15 04:31N 32°02' E 120°24'0 0.0
2015-May-15 03:14N 32°02' E 120°24'0 0.0
2015-May-15 02:21N 32°02' E 120°24'0 0.0
2015-May-15 01:26N 32°02' E 120°24'0 0.0
2015-May-15 00:20N 32°02' E 120°24'0 0.0
2015-May-14 23:32N 32°02' E 120°24'0 0.0
2015-May-14 22:20N 32°02' E 120°24'0 0.0
2015-May-14 20:14N 32°02' E 120°24'0 0.0
2015-May-14 19:14N 32°02' E 120°24'0 0.0
2015-May-14 17:32N 32°02' E 120°24'0 0.0
2015-May-14 16:32N 32°02' E 120°24'0 0.0
2015-May-14 15:32N 32°02' E 120°24'0 0.0
2015-May-14 14:32N 32°02' E 120°24'0 0.0
2015-May-14 13:32N 32°02' E 120°24'0 0.0
2015-May-14 12:25N 32°02' E 120°24'0 0.0
2015-May-14 11:32N 32°02' E 120°24'0 0.0
2015-May-14 10:32N 32°02' E 120°24'0 0.0
2015-May-14 09:32N 32°02' E 120°24'0 0.0
2015-May-14 08:31N 32°02' E 120°24'0 0.0
2015-May-14 07:32N 32°02' E 120°24'0 0.0
2015-May-14 06:25N 32°02' E 120°24'0 0.0
2015-May-14 05:25N 32°02' E 120°24'0 0.0
2015-May-14 04:32N 32°02' E 120°24'0 0.0
2015-May-14 03:32N 32°02' E 120°24'0 0.0
2015-May-14 02:08N 32°02' E 120°24'0 0.0
2015-May-14 01:26N 32°02' E 120°24'0 0.0
2015-May-14 00:25N 32°02' E 120°24'0 0.0
2015-May-13 23:32N 32°02' E 120°24'0 0.0
2015-May-13 22:32N 32°02' E 120°24'0 0.0
2015-May-13 21:26N 32°02' E 120°24'0 0.0
2015-May-13 20:32N 32°02' E 120°24'0 0.0
2015-May-13 19:20N 32°02' E 120°24'0 0.0
2015-May-13 18:28N 32°02' E 120°24'0 0.0
2015-May-13 17:26N 32°02' E 120°24'0 0.0
2015-May-13 16:20N 32°02' E 120°24'0 0.0
2015-May-13 15:32N 32°02' E 120°24'0 0.0
2015-May-13 14:14N 32°02' E 120°24'0 0.0
2015-May-13 13:04N 32°02' E 120°24'0 0.0
2015-May-13 12:11N 32°02' E 120°24'0 0.0
2015-May-13 11:32N 32°02' E 120°24'0 0.0
2015-May-13 10:25N 32°02' E 120°24'0 0.0
2015-May-13 02:22N 32°02' E 120°24'  
Track history (hours):
 
Tides and Currents Weather Stations Pressure Air Temp Water Temp Dewpoint Dewpoint Depression Visibility Wind Speed Wind Dir Waves Ship Positions

LNG Aquarius

Last reported at 2015-May-22 15:31 UTC. Time now 2015-May-25 11:31 UTC.
Position N 33°58' E 129°25'.

Type: Tanker. MMSI: 538001385.

Date/timePositionNaut miles runAvg speedWind from/ knotsBaromVisibWave heightAir tempDewpointWater temp
2015-May-22 15:31N 33°58' E 129°25'1413.6
2015-May-22 14:32N 33°52' E 129°10'1413.5
2015-May-22 13:29N 33°44' E 128°56'1313.4
2015-May-22 12:33N 33°37' E 128°43'18313.0
2015-May-21 22:25N 32°06' E 125°34'2412.7
2015-May-21 20:33N 31°55' E 125°10'4013.1
2015-May-21 17:29N 31°38' E 124°26'2611.7
2015-May-21 15:13N 31°28' E 123°58'910.4
2015-May-21 14:20N 31°24' E 123°48'12 9.7
2015-May-21 13:08N 31°20' E 123°35'610.6
2015-May-21 12:33N 31°17' E 123°29'5911.8
2015-May-21 07:33N 31°01' E 122°23'1413.4
2015-May-21 06:32N 31°03' E 122°07'1111.0
2015-May-21 05:33N 31°07' E 121°55'8 8.0
2015-May-21 04:32N 31°13' E 121°48'0 0.0
2015-May-21 03:32N 31°13' E 121°48'3 3.1
2015-May-21 02:33N 31°11' E 121°50'6 5.5
2015-May-21 01:33N 31°15' E 121°46'3 2.7
2015-May-21 00:32N 31°17' E 121°45'0 0.1
2015-May-20 23:32N 31°17' E 121°45'0 0.0
2015-May-20 22:32N 31°17' E 121°45'0 0.0
2015-May-20 21:29N 31°17' E 121°45'0 0.0
2015-May-20 20:32N 31°17' E 121°45'0 0.2
2015-May-20 19:32N 31°18' E 121°45'0 0.0
2015-May-20 18:32N 31°18' E 121°45'0 0.0
2015-May-20 17:32N 31°18' E 121°45'0 0.0
2015-May-20 16:32N 31°18' E 121°45'0 0.0
2015-May-20 15:32N 31°18' E 121°45'0 0.2
2015-May-20 14:29N 31°17' E 121°45'0 0.1
2015-May-20 13:32N 31°17' E 121°45'0 0.0
2015-May-20 12:32N 31°17' E 121°45'0 0.0
2015-May-20 11:29N 31°17' E 121°45'0 0.0
2015-May-20 10:32N 31°17' E 121°45'0 0.0
2015-May-20 09:29N 31°17' E 121°45'0 0.1
2015-May-20 08:32N 31°17' E 121°45'0 0.0
2015-May-20 07:32N 31°17' E 121°45'0 0.3
2015-May-20 06:32N 31°18' E 121°44'0 0.0
2015-May-20 05:32N 31°18' E 121°44'0 0.0
2015-May-20 04:32N 31°18' E 121°44'0 0.1
2015-May-20 03:32N 31°18' E 121°44'0 0.2
2015-May-20 02:29N 31°17' E 121°45'0 0.1
2015-May-20 01:32N 31°17' E 121°45'0 0.0
2015-May-20 00:32N 31°17' E 121°45'0 0.0
2015-May-19 23:32N 31°17' E 121°45'0 0.0
2015-May-19 22:32N 31°17' E 121°45'0 0.0
2015-May-19 21:29N 31°17' E 121°45'0 0.1
2015-May-19 20:32N 31°17' E 121°45'0 0.2
2015-May-19 19:32N 31°18' E 121°45'0 0.1
2015-May-19 18:32N 31°18' E 121°44'0 0.1
2015-May-19 17:33N 31°18' E 121°44'0 0.0
2015-May-19 16:30N 31°18' E 121°44'0 0.1
2015-May-19 15:33N 31°18' E 121°44'0 0.1
2015-May-19 14:33N 31°18' E 121°44'0 0.2
2015-May-19 13:33N 31°17' E 121°45'0 0.1
2015-May-19 12:33N 31°17' E 121°45'0 0.0
2015-May-19 11:30N 31°17' E 121°45'0 0.0
2015-May-19 10:33N 31°17' E 121°45'0 0.0
2015-May-19 09:33N 31°17' E 121°45'0 0.0
2015-May-19 08:33N 31°17' E 121°45'0 0.1
2015-May-19 07:30N 31°17' E 121°45'0 0.2
2015-May-19 06:30N 31°18' E 121°44'0 0.1
2015-May-19 05:33N 31°18' E 121°44'0 0.0
2015-May-19 04:33N 31°18' E 121°44'0 0.0
2015-May-19 03:30N 31°18' E 121°44'0 0.1
2015-May-19 02:33N 31°18' E 121°44'0 0.2
2015-May-19 01:33N 31°17' E 121°45'0 0.1
2015-May-19 00:33N 31°17' E 121°45'0 0.0
2015-May-18 23:33N 31°17' E 121°45'0 0.0
2015-May-18 22:33N 31°17' E 121°45'0 0.1
2015-May-18 21:33N 31°17' E 121°45'0 0.0
2015-May-18 20:33N 31°17' E 121°45'0 0.0
2015-May-18 19:33N 31°17' E 121°45'0 0.2
2015-May-18 18:33N 31°18' E 121°45'0 0.1
2015-May-18 17:33N 31°18' E 121°44'0 0.0
2015-May-18 16:33N 31°18' E 121°44'0 0.0
2015-May-18 15:33N 31°18' E 121°44'0 0.0
2015-May-18 14:32N 31°18' E 121°44'0 0.1
2015-May-18 13:30N 31°18' E 121°44'0 0.2
2015-May-18 12:32N 31°17' E 121°45'0 0.1
2015-May-18 11:32N 31°17' E 121°45'0 0.0
2015-May-18 10:33N 31°17' E 121°45'0 0.0
2015-May-18 09:32N 31°17' E 121°45'0 0.0
2015-May-18 08:29N 31°17' E 121°45'0 0.1
2015-May-18 07:33N 31°17' E 121°45'0 0.1
2015-May-18 06:32N 31°17' E 121°45'0 0.2
2015-May-18 05:32N 31°18' E 121°45'0 0.1
2015-May-18 04:32N 31°18' E 121°44'0 0.0
2015-May-18 03:32N 31°18' E 121°44'0 0.1
2015-May-18 02:33N 31°18' E 121°45'4 4.2
2015-May-18 01:33N 31°20' E 121°41'6 6.1
2015-May-18 00:33N 31°23' E 121°34'8 8.1
2015-May-17 23:33N 31°28' E 121°27'1111.4
2015-May-17 22:33N 31°36' E 121°17'3 3.1
2015-May-17 21:30N 31°39' E 121°15'0 0.0
2015-May-17 20:33N 31°39' E 121°15'0 0.1
2015-May-17 19:33N 31°39' E 121°15'0 0.2
2015-May-17 18:33N 31°39' E 121°15'0 0.0
2015-May-17 17:33N 31°39' E 121°15'0 0.0
2015-May-17 16:30N 31°39' E 121°15'0 0.0
2015-May-17 15:30N 31°39' E 121°15'0 0.1
2015-May-17 14:34N 31°39' E 121°15'7 7.2
2015-May-17 13:34N 31°43' E 121°08'1211.5
2015-May-17 12:31N 31°48' E 120°55'1313.3
2015-May-17 11:33N 31°60' E 120°49'1312.8
2015-May-17 10:33N 32°02' E 120°34'9 9.4
2015-May-17 09:33N 32°01' E 120°23'0 0.1
2015-May-17 08:16N 32°01' E 120°23'0 0.1
2015-May-17 07:28N 32°01' E 120°23'0 0.1
2015-May-17 06:28N 32°01' E 120°23'0 0.1
2015-May-17 05:22N 32°01' E 120°23'0 0.1
2015-May-17 04:34N 32°01' E 120°23'0 0.0
2015-May-17 03:28N 32°01' E 120°23'0 0.1
2015-May-17 02:28N 32°01' E 120°23'0 0.0
2015-May-17 01:28N 32°01' E 120°23'0 0.0
2015-May-17 00:28N 32°01' E 120°23'0 0.0
2015-May-16 23:25N 32°01' E 120°23'0 0.0
2015-May-16 22:33N 32°01' E 120°23'0 0.0
2015-May-16 21:28N 32°01' E 120°23'0 0.1
2015-May-16 20:30N 32°01' E 120°23'0 0.1
2015-May-16 19:22N 32°01' E 120°23'0 0.0
2015-May-16 18:28N 32°01' E 120°23'0 0.0
2015-May-16 17:28N 32°01' E 120°23'0 0.2
2015-May-16 16:33N 32°01' E 120°23'0 0.1
2015-May-16 15:33N 32°01' E 120°23'0 0.0
2015-May-16 14:33N 32°01' E 120°23'0 0.0
2015-May-16 13:33N 32°01' E 120°23'0 0.0
2015-May-16 12:33N 32°01' E 120°23'0 0.0
2015-May-16 11:33N 32°01' E 120°23'0 0.0
2015-May-16 10:33N 32°01' E 120°23'0 0.0
2015-May-16 09:33N 32°01' E 120°23'0 0.0
2015-May-16 08:33N 32°01' E 120°23'0 0.2
2015-May-16 07:33N 32°01' E 120°23'0 0.1
2015-May-16 06:32N 32°01' E 120°23'0 0.0
2015-May-16 05:33N 32°01' E 120°23'0 0.1
2015-May-16 04:33N 32°01' E 120°23'0 0.1
2015-May-16 03:33N 32°01' E 120°23'0 0.0
2015-May-16 02:33N 32°01' E 120°23'0 0.0
2015-May-16 01:33N 32°01' E 120°23'0 0.0
2015-May-16 00:33N 32°01' E 120°23'0 0.0
2015-May-15 23:33N 32°01' E 120°23'0 0.0
2015-May-15 22:33N 32°01' E 120°23'0 0.0
2015-May-15 21:33N 32°01' E 120°23'0 0.0
2015-May-15 20:33N 32°01' E 120°23'0 0.1
2015-May-15 19:33N 32°01' E 120°23'0 0.1
2015-May-15 18:33N 32°01' E 120°23'0 0.0
2015-May-15 17:33N 32°01' E 120°23'0 0.0
2015-May-15 16:33N 32°01' E 120°23'0 0.2
2015-May-15 15:33N 32°01' E 120°23'0 0.0
2015-May-15 14:33N 32°01' E 120°23'0 0.0
2015-May-15 13:33N 32°01' E 120°23'0 0.0
2015-May-15 12:33N 32°01' E 120°23'0 0.1
2015-May-15 11:34N 32°01' E 120°23'2 2.1
2015-May-15 10:33N 32°03' E 120°25'0 0.1
2015-May-15 09:33N 32°03' E 120°25'0 0.2
2015-May-15 08:33N 32°03' E 120°25'0 0.3
2015-May-15 07:32N 32°02' E 120°24'0 0.0
2015-May-15 06:32N 32°02' E 120°24'0 0.0
2015-May-15 05:32N 32°02' E 120°24'0 0.0
2015-May-15 04:31N 32°02' E 120°24'0 0.0
2015-May-15 03:14N 32°02' E 120°24'0 0.0
2015-May-15 02:21N 32°02' E 120°24'0 0.0
2015-May-15 01:26N 32°02' E 120°24'0 0.0
2015-May-15 00:20N 32°02' E 120°24'0 0.0
2015-May-14 23:32N 32°02' E 120°24'0 0.0
2015-May-14 22:20N 32°02' E 120°24'0 0.0
2015-May-14 20:14N 32°02' E 120°24'0 0.0
2015-May-14 19:14N 32°02' E 120°24'0 0.0
2015-May-14 17:32N 32°02' E 120°24'0 0.0
2015-May-14 16:32N 32°02' E 120°24'0 0.0
2015-May-14 15:32N 32°02' E 120°24'0 0.0
2015-May-14 14:32N 32°02' E 120°24'0 0.0
2015-May-14 13:32N 32°02' E 120°24'0 0.0
2015-May-14 12:25N 32°02' E 120°24'0 0.0
2015-May-14 11:32N 32°02' E 120°24'0 0.0
2015-May-14 10:32N 32°02' E 120°24'0 0.0
2015-May-14 09:32N 32°02' E 120°24'0 0.0
2015-May-14 08:31N 32°02' E 120°24'0 0.0
2015-May-14 07:32N 32°02' E 120°24'0 0.0
2015-May-14 06:25N 32°02' E 120°24'0 0.0
2015-May-14 05:25N 32°02' E 120°24'0 0.0
2015-May-14 04:32N 32°02' E 120°24'0 0.0
2015-May-14 03:32N 32°02' E 120°24'0 0.0
2015-May-14 02:08N 32°02' E 120°24'0 0.0
2015-May-14 01:26N 32°02' E 120°24'0 0.0
2015-May-14 00:25N 32°02' E 120°24'0 0.0
2015-May-13 23:32N 32°02' E 120°24'0 0.0
2015-May-13 22:32N 32°02' E 120°24'0 0.0
2015-May-13 21:26N 32°02' E 120°24'0 0.0
2015-May-13 20:32N 32°02' E 120°24'0 0.0
2015-May-13 19:20N 32°02' E 120°24'0 0.0
2015-May-13 18:28N 32°02' E 120°24'0 0.0
2015-May-13 17:26N 32°02' E 120°24'0 0.0
2015-May-13 16:20N 32°02' E 120°24'0 0.0
2015-May-13 15:32N 32°02' E 120°24'0 0.0
2015-May-13 14:14N 32°02' E 120°24'0 0.0
2015-May-13 13:04N 32°02' E 120°24'0 0.0
2015-May-13 12:11N 32°02' E 120°24'0 0.0
2015-May-13 11:32N 32°02' E 120°24'0 0.0
2015-May-13 10:25N 32°02' E 120°24'0 0.0
2015-May-13 02:22N 32°02' E 120°24'  

Dump ship's entire track history